Aviation Digital Data Service (ADDS)

Output produced by METARs form (0223 UTC 11 February 2016)
found at http://www.aviationweather.gov/adds/metars/
 
KEWR 102340Z 1100/1206 26014G21KT P6SM BKN050 
     FM110100 27013KT P6SM BKN120 
     FM110700 29015G23KT P6SM BKN035 
     FM111500 29021G31KT P6SM BKN050 
     FM120200 30016G28KT P6SM FEW040